Terminal Aerodrome Forecast
Issued by NWS Green Bay, WI

Home | Current Version | Previous Version | Graphics & Text | Print | Product List | Glossary On
Versions: 1 2 3 4 5 6 7 8 9 10 11 12 13 14 15
000
FTUS43 KGRB 211734
TAFGRB
TAF
KGRB 211734Z 2118/2218 32007G17KT P6SM VCSH BKN040
     FM212300 29006KT P6SM SCT050
     FM220300 27003KT P6SM SKC
     FM221500 23007KT P6SM FEW030=

USA.gov is the U.S. government's official web portal to all federal, state and local government web resources and services.